Medi Baltimore — ICLW — position and weather

sailwx.info

Track history (hours):
 
Tides and Currents Weather Stations Pressure Air Temp Water Temp Dewpoint Dewpoint Depression Visibility Wind Speed Wind Dir Waves Ship Positions

Medi Baltimore

Last reported at 2018-Feb-21 14:47 UTC. Time now 2018-Feb-22 19:13 UTC.
Position S 28°50' E 032°11'.

Length 225 m; draft 12.2 m.

Type: Cargo ship. MMSI: 247255300.

Date/timePositionNaut miles runAvg speedWind from/ knotsBaromVisibWave heightAir tempDewpointWater temp
2018-Feb-21 14:47S 28°50' E 032°11'4 8.9
2018-Feb-21 14:18S 28°49' E 032°06'3 2.9
2018-Feb-21 13:05S 28°48' E 032°03'9 0.3
2018-Feb-20 07:30S 28°56' E 032°07'2 0.8
2018-Feb-20 05:28S 28°56' E 032°05'0 0.0
2018-Feb-20 04:52S 28°56' E 032°05'0 0.0
2018-Feb-18 13:58S 28°56' E 032°05'0 0.0
2018-Feb-18 03:43S 28°56' E 032°05'0 0.0
2018-Feb-16 15:33S 28°56' E 032°05'0 0.1
2018-Feb-16 15:03S 28°56' E 032°05'0 0.3
2018-Feb-16 14:43S 28°56' E 032°06'1 2.6
2018-Feb-16 14:29S 28°57' E 032°06'  
2018-Feb-14 04:45S 29°00' E 032°08'0 0.0
2018-Feb-12 15:52S 29°00' E 032°08'0 0.0
2018-Feb-12 15:29S 29°00' E 032°08'0 0.0
2018-Feb-12 14:58S 29°00' E 032°08'  
Track history (hours):
 
Tides and Currents Weather Stations Pressure Air Temp Water Temp Dewpoint Dewpoint Depression Visibility Wind Speed Wind Dir Waves Ship Positions

Medi Baltimore

Last reported at 2018-Feb-21 14:47 UTC. Time now 2018-Feb-22 19:13 UTC.
Position S 28°50' E 032°11'.

Length 225 m; draft 12.2 m.

Type: Cargo ship. MMSI: 247255300.

Date/timePositionNaut miles runAvg speedWind from/ knotsBaromVisibWave heightAir tempDewpointWater temp
2018-Feb-21 14:47S 28°50' E 032°11'4 8.9
2018-Feb-21 14:18S 28°49' E 032°06'3 2.9
2018-Feb-21 13:05S 28°48' E 032°03'9 0.3
2018-Feb-20 07:30S 28°56' E 032°07'2 0.8
2018-Feb-20 05:28S 28°56' E 032°05'0 0.0
2018-Feb-20 04:52S 28°56' E 032°05'0 0.0
2018-Feb-18 13:58S 28°56' E 032°05'0 0.0
2018-Feb-18 03:43S 28°56' E 032°05'0 0.0
2018-Feb-16 15:33S 28°56' E 032°05'0 0.1
2018-Feb-16 15:03S 28°56' E 032°05'0 0.3
2018-Feb-16 14:43S 28°56' E 032°06'1 2.6
2018-Feb-16 14:29S 28°57' E 032°06'  
2018-Feb-14 04:45S 29°00' E 032°08'0 0.0
2018-Feb-12 15:52S 29°00' E 032°08'0 0.0
2018-Feb-12 15:29S 29°00' E 032°08'0 0.0
2018-Feb-12 14:58S 29°00' E 032°08'  

Dump ship's entire track history